Terminal Aerodrome Forecast
Issued by NWS Cleveland, OH

Home | Current Version | Previous Version | Graphics & Text | Print | Product List | Glossary On
Versions: 1 2 3 4 5 6 7 8 9 10 11 12 13 14 15 16 17 18 19 20 21 22 23 24 25
000
FTUS41 KCLE 301300 AAA
TAFMFD
TAF AMD
KMFD 301338Z 3014/0112 32008KT 1 1/2SM BR BKN004 OVC035
      TEMPO 3014/3015 3SM -TSRA BR OVC008CB
     FM301500 32009KT 6SM BR OVC006
      TEMPO 3015/3016 4SM BR OVC004
     FM301800 35006KT P6SM BKN012 OVC025
     FM302200 01003KT P6SM BKN025
     FM010400 03003KT 2SM BR OVC003=

USA.gov is the U.S. government's official web portal to all federal, state and local government web resources and services.